createdAt,value
2018-08-06T00:00:22.367Z,10.95
2018-08-06T00:06:17.420Z,11.12
2018-08-06T00:12:12.377Z,11.15
2018-08-06T00:18:07.393Z,11.56
2018-08-06T00:24:02.400Z,10.35
2018-08-06T00:29:57.444Z,11.3
2018-08-06T00:35:52.436Z,11.08
2018-08-06T00:41:47.484Z,10.7
2018-08-06T00:47:42.439Z,10.99
2018-08-06T00:53:37.420Z,10.66
2018-08-06T00:59:32.427Z,11.03
2018-08-06T01:05:27.426Z,11.75
2018-08-06T01:11:22.478Z,11.81
2018-08-06T01:17:17.477Z,12.42
2018-08-06T01:23:12.447Z,12.4
2018-08-06T01:29:07.442Z,12.19
2018-08-06T01:35:02.472Z,11.72
2018-08-06T01:40:57.490Z,11.19
2018-08-06T01:46:52.518Z,12.61
2018-08-06T01:52:47.540Z,12.3
2018-08-06T01:58:42.476Z,12.3
2018-08-06T02:04:37.518Z,12.5
2018-08-06T02:10:32.489Z,11.5
2018-08-06T02:16:27.528Z,11.86
2018-08-06T02:22:22.468Z,11.45
2018-08-06T02:28:17.534Z,11.77
2018-08-06T02:34:12.491Z,11.05
2018-08-06T02:40:07.506Z,11.8
2018-08-06T02:46:02.517Z,11.66
2018-08-06T02:51:57.522Z,10.34
2018-08-06T02:57:52.587Z,10.96
2018-08-06T03:03:47.560Z,11.03
2018-08-06T03:09:42.555Z,10.13
2018-08-06T03:15:37.595Z,10.5
2018-08-06T03:21:32.559Z,10.61
2018-08-06T03:27:27.581Z,10.55
2018-08-06T03:33:22.562Z,10.26
2018-08-06T03:39:17.543Z,11.73
2018-08-06T03:45:12.614Z,11.24
2018-08-06T03:51:07.569Z,11.01
2018-08-06T03:57:02.650Z,11.45
2018-08-06T04:02:57.625Z,11.08
2018-08-06T04:08:52.575Z,11.27
2018-08-06T04:14:47.630Z,11.14
2018-08-06T04:20:42.633Z,11.67
2018-08-06T04:26:37.662Z,10.9
2018-08-06T04:32:32.689Z,11.47
2018-08-06T04:38:27.609Z,10.92
2018-08-06T04:44:22.624Z,11.26
2018-08-06T04:50:17.696Z,12.09
2018-08-06T04:56:12.663Z,12.36
2018-08-06T05:02:07.656Z,11.92
2018-08-06T05:08:02.637Z,12.44
2018-08-06T05:13:57.653Z,13.14
2018-08-06T05:19:52.621Z,11.75
2018-08-06T05:25:47.700Z,11.96
2018-08-06T05:31:42.636Z,12.36
2018-08-06T05:37:37.649Z,12.35
2018-08-06T05:43:32.685Z,13.22
2018-08-06T05:49:27.708Z,12.57
2018-08-06T05:55:22.718Z,12.91
2018-08-06T06:01:17.715Z,11.6
2018-08-06T06:07:12.707Z,11.8
2018-08-06T06:13:07.658Z,11.54
2018-08-06T06:19:02.717Z,12.79
2018-08-06T06:24:57.674Z,13.51
2018-08-06T06:30:52.709Z,13.6
2018-08-06T06:36:47.690Z,14.54
2018-08-06T06:42:42.669Z,13.41
2018-08-06T06:48:37.701Z,13.66
2018-08-06T06:54:32.791Z,13.97
2018-08-06T07:00:27.715Z,13.47
2018-08-06T07:06:22.818Z,13.14
2018-08-06T07:12:17.739Z,13.27
2018-08-06T07:18:12.736Z,13.08
2018-08-06T07:24:07.709Z,13.21
2018-08-06T07:30:02.987Z,12.89
2018-08-06T07:35:57.731Z,12.81
2018-08-06T07:41:52.807Z,11.74
2018-08-06T07:47:47.751Z,16.23
2018-08-06T07:53:42.785Z,11.86
2018-08-06T07:59:37.820Z,10.62
2018-08-06T08:05:33.439Z,11.37
2018-08-06T08:11:28.942Z,11.37
2018-08-06T08:17:22.784Z,10.34
2018-08-06T08:23:17.821Z,11.41
2018-08-06T08:29:12.781Z,12.2
2018-08-06T08:35:07.826Z,10.59
2018-08-06T08:41:02.801Z,10.39
2018-08-06T08:46:57.804Z,9.31
2018-08-06T08:52:52.888Z,9.15
2018-08-06T08:58:47.976Z,9.01
2018-08-06T09:04:42.825Z,8.35
2018-08-06T09:10:37.826Z,7.93
2018-08-06T09:16:32.811Z,7.59
2018-08-06T09:22:27.824Z,7.43
2018-08-06T09:28:22.978Z,7.75
2018-08-06T09:34:17.842Z,6.82
2018-08-06T09:40:12.953Z,7.38
2018-08-06T09:46:07.848Z,7.2
2018-08-06T09:52:02.880Z,7.2
2018-08-06T09:57:57.905Z,6.46
2018-08-06T10:03:52.876Z,6.7
2018-08-06T10:09:47.882Z,6.88
2018-08-06T10:15:42.960Z,6.51
2018-08-06T10:21:37.895Z,6.57
2018-08-06T10:27:32.893Z,5.61
2018-08-06T10:33:27.926Z,6.15
2018-08-06T10:39:22.954Z,5.74
2018-08-06T10:45:17.934Z,5.96
2018-08-06T10:51:12.992Z,5.88
2018-08-06T10:57:07.948Z,5.58
2018-08-06T11:03:02.915Z,5.6
2018-08-06T11:08:58.070Z,5.06
2018-08-06T11:14:52.953Z,5.46
2018-08-06T11:20:47.944Z,5.34
2018-08-06T11:26:42.974Z,5.27
2018-08-06T11:32:37.988Z,5.17
2018-08-06T11:38:32.996Z,4.56
2018-08-06T11:44:27.967Z,5
2018-08-06T11:50:23.021Z,4.73
2018-08-06T11:56:18.043Z,4.59
2018-08-06T12:02:13.003Z,4.59
2018-08-06T12:08:08.021Z,4.29
2018-08-06T12:14:02.985Z,4.21
2018-08-06T12:19:58.044Z,4.31
2018-08-06T12:25:53.174Z,4.1
2018-08-06T12:31:48.011Z,4.06
2018-08-06T12:37:43.078Z,4.35
2018-08-06T12:43:38.011Z,4.12
2018-08-06T12:49:33.002Z,4.47
2018-08-06T12:55:28.027Z,3.77
2018-08-06T13:01:23.037Z,3.88
2018-08-06T13:07:18.059Z,3.47
2018-08-06T13:13:13.041Z,3.6
2018-08-06T13:19:08.122Z,3.63
2018-08-06T13:25:03.118Z,3.86
2018-08-06T13:30:58.096Z,3.44
2018-08-06T13:36:53.121Z,3.56
2018-08-06T13:42:48.082Z,3.4
2018-08-06T13:48:43.110Z,3.56
2018-08-06T13:54:38.078Z,3.38
2018-08-06T14:00:33.088Z,3.08
2018-08-06T14:06:28.108Z,3.44
2018-08-06T14:12:23.089Z,3.02
2018-08-06T14:18:18.108Z,3.07
2018-08-06T14:24:13.110Z,3.27
2018-08-06T14:30:08.137Z,3.02
2018-08-06T14:36:03.128Z,3.45
2018-08-06T14:41:58.117Z,3.24
2018-08-06T14:47:53.134Z,3.67
2018-08-06T14:53:48.238Z,3.31
2018-08-06T14:59:43.176Z,3.43
2018-08-06T15:05:38.169Z,3.41
2018-08-06T15:11:33.307Z,3.71
2018-08-06T15:17:28.240Z,3.93
2018-08-06T15:23:23.195Z,3.92
2018-08-06T15:29:18.175Z,4.04
2018-08-06T15:35:13.234Z,3.89
2018-08-06T15:41:08.200Z,4.37
2018-08-06T15:47:03.204Z,3.87
2018-08-06T15:52:58.219Z,3.9
2018-08-06T15:58:53.213Z,4.23
2018-08-06T16:04:48.264Z,4.53
2018-08-06T16:10:43.267Z,4.43
2018-08-06T16:16:38.213Z,4.17
2018-08-06T16:22:33.234Z,4.17
2018-08-06T16:28:28.242Z,4.47
2018-08-06T16:34:23.272Z,4.8
2018-08-06T16:40:18.297Z,5.2
2018-08-06T16:46:13.267Z,4.55
2018-08-06T16:52:08.334Z,5.11
2018-08-06T16:58:03.244Z,5.21
2018-08-06T17:03:58.327Z,6.12
2018-08-06T17:09:53.357Z,5.8
2018-08-06T17:15:48.320Z,6.23
2018-08-06T17:21:43.269Z,6.53
2018-08-06T17:27:38.293Z,6.94
2018-08-06T17:33:33.326Z,7.1
2018-08-06T17:39:28.337Z,6.66
2018-08-06T17:45:23.317Z,6.36
2018-08-06T17:51:18.285Z,6.81
2018-08-06T17:57:13.316Z,6.43
2018-08-06T18:03:08.328Z,7.57
2018-08-06T18:09:03.318Z,7.23
2018-08-06T18:14:58.345Z,7.84
2018-08-06T18:20:53.327Z,7.03
2018-08-06T18:26:48.333Z,5.93
2018-08-06T18:32:43.403Z,6.1
2018-08-06T18:38:38.369Z,5.69
2018-08-06T18:44:33.359Z,6.08
2018-08-06T18:50:28.404Z,5.83
2018-08-06T18:56:23.439Z,5.72
2018-08-06T19:02:18.369Z,6.02
2018-08-06T19:08:13.394Z,6.11
2018-08-06T19:14:08.415Z,6.11
2018-08-06T19:20:03.481Z,6.09
2018-08-06T19:25:58.458Z,6.48
2018-08-06T19:31:53.464Z,6.79
2018-08-06T19:37:48.427Z,7.33
2018-08-06T19:43:43.438Z,7.61
2018-08-06T19:49:38.515Z,7.85
2018-08-06T19:55:33.427Z,7.33
2018-08-06T20:01:28.411Z,7.38
2018-08-06T20:07:23.456Z,8.01
2018-08-06T20:13:18.446Z,8.35
2018-08-06T20:19:13.466Z,8.51
2018-08-06T20:25:08.451Z,7.49
2018-08-06T20:31:03.480Z,7.95
2018-08-06T20:36:58.487Z,8.4
2018-08-06T20:42:53.463Z,8.8
2018-08-06T20:48:48.483Z,8.3
2018-08-06T20:54:43.483Z,8.01
2018-08-06T21:00:38.499Z,8.74
2018-08-06T21:06:33.500Z,11.29
2018-08-06T21:12:28.498Z,8.56
2018-08-06T21:18:23.548Z,9
2018-08-06T21:24:18.517Z,9.28
2018-08-06T21:30:13.498Z,9.34
2018-08-06T21:36:08.503Z,8.84
2018-08-06T21:42:03.523Z,8.96
2018-08-06T21:47:58.539Z,9.16
2018-08-06T21:53:53.538Z,9.52
2018-08-06T21:59:48.526Z,9.3
2018-08-06T22:05:43.602Z,9.47
2018-08-06T22:11:38.542Z,9.19
2018-08-06T22:17:33.590Z,9.64
2018-08-06T22:23:28.590Z,9.48
2018-08-06T22:29:23.570Z,9.55
2018-08-06T22:35:18.573Z,9.03
2018-08-06T22:41:13.585Z,9.79
2018-08-06T22:47:08.593Z,10.34
2018-08-06T22:53:03.599Z,10.07
2018-08-06T22:58:58.596Z,9.73
2018-08-06T23:04:53.592Z,10.99
2018-08-06T23:10:48.639Z,10.1
2018-08-06T23:16:43.598Z,10.23
2018-08-06T23:22:38.604Z,9.87
2018-08-06T23:28:33.621Z,10.97
2018-08-06T23:34:28.602Z,10.6
2018-08-06T23:40:23.668Z,10.35
2018-08-06T23:46:18.600Z,11.55
2018-08-06T23:52:13.640Z,11.09
2018-08-06T23:58:08.672Z,10.45
